sensor_id;sensor_type;location;lat;lon;timestamp;temperature;humidity
51867;DHT22;52862;52.504;13.480;2022-09-16T00:01:12;13.20;99.90
51867;DHT22;52862;52.504;13.480;2022-09-16T00:03:41;13.10;99.90
51867;DHT22;52862;52.504;13.480;2022-09-16T00:06:16;13.10;99.90
51867;DHT22;52862;52.504;13.480;2022-09-16T00:08:43;13.00;99.90
51867;DHT22;52862;52.504;13.480;2022-09-16T00:11:11;13.20;99.90
51867;DHT22;52862;52.504;13.480;2022-09-16T00:13:37;13.10;99.90
51867;DHT22;52862;52.504;13.480;2022-09-16T00:16:06;13.10;99.90
51867;DHT22;52862;52.504;13.480;2022-09-16T00:18:33;13.00;99.90
51867;DHT22;52862;52.504;13.480;2022-09-16T00:21:00;12.90;99.90
51867;DHT22;52862;52.504;13.480;2022-09-16T00:23:27;12.80;99.90
51867;DHT22;52862;52.504;13.480;2022-09-16T00:25:54;12.90;99.90
51867;DHT22;52862;52.504;13.480;2022-09-16T00:28:22;13.00;99.90
51867;DHT22;52862;52.504;13.480;2022-09-16T00:30:49;12.90;99.90
51867;DHT22;52862;52.504;13.480;2022-09-16T00:33:16;12.90;99.90
51867;DHT22;52862;52.504;13.480;2022-09-16T00:35:43;12.90;99.90
51867;DHT22;52862;52.504;13.480;2022-09-16T00:38:10;12.90;99.90
51867;DHT22;52862;52.504;13.480;2022-09-16T00:40:43;12.80;99.90
51867;DHT22;52862;52.504;13.480;2022-09-16T00:43:12;12.80;99.90
51867;DHT22;52862;52.504;13.480;2022-09-16T00:45:38;12.80;99.90
51867;DHT22;52862;52.504;13.480;2022-09-16T00:48:07;12.90;99.90
51867;DHT22;52862;52.504;13.480;2022-09-16T00:50:37;12.80;99.90
51867;DHT22;52862;52.504;13.480;2022-09-16T00:53:08;12.70;99.90
51867;DHT22;52862;52.504;13.480;2022-09-16T00:55:40;12.80;99.90
51867;DHT22;52862;52.504;13.480;2022-09-16T00:58:11;12.70;99.90
51867;DHT22;52862;52.504;13.480;2022-09-16T01:00:39;12.60;99.90
51867;DHT22;52862;52.504;13.480;2022-09-16T01:03:06;12.60;99.90
51867;DHT22;52862;52.504;13.480;2022-09-16T01:05:33;12.60;99.90
51867;DHT22;52862;52.504;13.480;2022-09-16T01:08:02;12.70;99.90
51867;DHT22;52862;52.504;13.480;2022-09-16T01:10:29;12.60;99.90
51867;DHT22;52862;52.504;13.480;2022-09-16T01:12:59;12.60;99.90
51867;DHT22;52862;52.504;13.480;2022-09-16T01:15:31;12.80;99.90
51867;DHT22;52862;52.504;13.480;2022-09-16T01:18:10;12.60;99.90
51867;DHT22;52862;52.504;13.480;2022-09-16T01:21:10;12.50;99.90
51867;DHT22;52862;52.504;13.480;2022-09-16T01:24:01;12.60;99.90
51867;DHT22;52862;52.504;13.480;2022-09-16T01:26:49;12.50;99.90
51867;DHT22;52862;52.504;13.480;2022-09-16T01:29:48;12.60;99.90
51867;DHT22;52862;52.504;13.480;2022-09-16T01:32:28;12.40;99.90
51867;DHT22;52862;52.504;13.480;2022-09-16T01:35:03;12.40;99.90
51867;DHT22;52862;52.504;13.480;2022-09-16T01:37:39;12.30;99.90
51867;DHT22;52862;52.504;13.480;2022-09-16T01:40:15;12.30;99.90
51867;DHT22;52862;52.504;13.480;2022-09-16T01:42:55;12.50;99.90
51867;DHT22;52862;52.504;13.480;2022-09-16T01:45:29;12.30;99.90
51867;DHT22;52862;52.504;13.480;2022-09-16T01:48:03;12.30;99.90
51867;DHT22;52862;52.504;13.480;2022-09-16T01:50:40;12.30;99.90
51867;DHT22;52862;52.504;13.480;2022-09-16T01:53:13;12.30;99.90
51867;DHT22;52862;52.504;13.480;2022-09-16T01:55:45;12.60;99.90
51867;DHT22;52862;52.504;13.480;2022-09-16T01:58:17;12.20;99.90
51867;DHT22;52862;52.504;13.480;2022-09-16T02:00:50;12.30;99.90
51867;DHT22;52862;52.504;13.480;2022-09-16T02:03:22;12.20;99.90
51867;DHT22;52862;52.504;13.480;2022-09-16T02:05:55;12.20;99.90
51867;DHT22;52862;52.504;13.480;2022-09-16T02:08:26;12.20;99.90
51867;DHT22;52862;52.504;13.480;2022-09-16T02:10:57;12.20;99.90
51867;DHT22;52862;52.504;13.480;2022-09-16T02:13:28;12.10;99.90
51867;DHT22;52862;52.504;13.480;2022-09-16T02:15:59;12.10;99.90
51867;DHT22;52862;52.504;13.480;2022-09-16T02:18:31;12.10;99.90
51867;DHT22;52862;52.504;13.480;2022-09-16T02:21:01;12.10;99.90
51867;DHT22;52862;52.504;13.480;2022-09-16T02:23:33;12.10;99.90
51867;DHT22;52862;52.504;13.480;2022-09-16T02:26:00;12.10;99.90
51867;DHT22;52862;52.504;13.480;2022-09-16T02:28:34;12.10;99.90
51867;DHT22;52862;52.504;13.480;2022-09-16T02:31:07;12.10;99.90
51867;DHT22;52862;52.504;13.480;2022-09-16T02:33:38;12.00;99.90
51867;DHT22;52862;52.504;13.480;2022-09-16T02:36:07;12.00;99.90
51867;DHT22;52862;52.504;13.480;2022-09-16T02:38:41;12.00;99.90
51867;DHT22;52862;52.504;13.480;2022-09-16T02:41:09;12.00;99.90
51867;DHT22;52862;52.504;13.480;2022-09-16T02:43:40;12.00;99.90
51867;DHT22;52862;52.504;13.480;2022-09-16T02:46:14;12.00;99.90
51867;DHT22;52862;52.504;13.480;2022-09-16T02:48:55;12.00;99.90
51867;DHT22;52862;52.504;13.480;2022-09-16T02:51:32;12.00;99.90
51867;DHT22;52862;52.504;13.480;2022-09-16T02:54:02;12.10;99.90
51867;DHT22;52862;52.504;13.480;2022-09-16T02:56:33;12.00;99.90
51867;DHT22;52862;52.504;13.480;2022-09-16T02:59:05;12.00;99.90
51867;DHT22;52862;52.504;13.480;2022-09-16T03:01:37;12.20;99.90
51867;DHT22;52862;52.504;13.480;2022-09-16T03:04:07;11.90;99.90
51867;DHT22;52862;52.504;13.480;2022-09-16T03:06:33;11.90;99.90
51867;DHT22;52862;52.504;13.480;2022-09-16T03:09:03;11.90;99.90
51867;DHT22;52862;52.504;13.480;2022-09-16T03:12:03;11.90;99.90
51867;DHT22;52862;52.504;13.480;2022-09-16T03:14:48;11.90;99.90
51867;DHT22;52862;52.504;13.480;2022-09-16T03:17:29;11.90;99.90
51867;DHT22;52862;52.504;13.480;2022-09-16T03:20:04;11.90;99.90
51867;DHT22;52862;52.504;13.480;2022-09-16T03:22:44;11.90;99.90
51867;DHT22;52862;52.504;13.480;2022-09-16T03:25:20;11.90;99.90
51867;DHT22;52862;52.504;13.480;2022-09-16T03:27:50;11.90;99.90
51867;DHT22;52862;52.504;13.480;2022-09-16T03:30:17;11.90;99.90
51867;DHT22;52862;52.504;13.480;2022-09-16T03:32:49;11.90;99.90
51867;DHT22;52862;52.504;13.480;2022-09-16T03:35:22;11.90;99.90
51867;DHT22;52862;52.504;13.480;2022-09-16T03:37:52;11.90;99.90
51867;DHT22;52862;52.504;13.480;2022-09-16T03:40:20;11.90;99.90
51867;DHT22;52862;52.504;13.480;2022-09-16T03:42:47;11.90;99.90
51867;DHT22;52862;52.504;13.480;2022-09-16T03:45:16;11.90;99.90
51867;DHT22;52862;52.504;13.480;2022-09-16T03:47:43;11.90;99.90
51867;DHT22;52862;52.504;13.480;2022-09-16T03:50:12;11.80;99.90
51867;DHT22;52862;52.504;13.480;2022-09-16T03:52:42;11.90;99.90
51867;DHT22;52862;52.504;13.480;2022-09-16T03:55:09;12.00;99.90
51867;DHT22;52862;52.504;13.480;2022-09-16T03:57:36;11.90;99.90
51867;DHT22;52862;52.504;13.480;2022-09-16T04:00:06;11.90;99.90
51867;DHT22;52862;52.504;13.480;2022-09-16T04:02:33;11.90;99.90
51867;DHT22;52862;52.504;13.480;2022-09-16T04:05:00;11.90;99.90
51867;DHT22;52862;52.504;13.480;2022-09-16T04:07:27;11.90;99.90
51867;DHT22;52862;52.504;13.480;2022-09-16T04:09:54;11.90;99.90
51867;DHT22;52862;52.504;13.480;2022-09-16T04:12:21;12.10;99.90
51867;DHT22;52862;52.504;13.480;2022-09-16T04:14:47;11.90;99.90
51867;DHT22;52862;52.504;13.480;2022-09-16T04:17:15;11.90;99.90
51867;DHT22;52862;52.504;13.480;2022-09-16T04:19:42;12.10;99.90
51867;DHT22;52862;52.504;13.480;2022-09-16T04:22:10;11.90;99.90
51867;DHT22;52862;52.504;13.480;2022-09-16T04:24:37;11.90;99.90
51867;DHT22;52862;52.504;13.480;2022-09-16T04:27:04;11.90;99.90
51867;DHT22;52862;52.504;13.480;2022-09-16T04:29:31;11.90;99.90
51867;DHT22;52862;52.504;13.480;2022-09-16T04:31:58;11.90;99.90
51867;DHT22;52862;52.504;13.480;2022-09-16T04:34:24;11.90;99.90
51867;DHT22;52862;52.504;13.480;2022-09-16T04:36:52;11.80;99.90
51867;DHT22;52862;52.504;13.480;2022-09-16T04:39:22;11.90;99.90
51867;DHT22;52862;52.504;13.480;2022-09-16T04:41:49;11.90;99.90
51867;DHT22;52862;52.504;13.480;2022-09-16T04:44:16;12.20;99.90
51867;DHT22;52862;52.504;13.480;2022-09-16T04:46:43;11.90;99.90
51867;DHT22;52862;52.504;13.480;2022-09-16T04:49:12;11.80;99.90
51867;DHT22;52862;52.504;13.480;2022-09-16T04:51:38;11.80;99.90
51867;DHT22;52862;52.504;13.480;2022-09-16T04:54:05;11.70;99.90
51867;DHT22;52862;52.504;13.480;2022-09-16T04:56:32;11.80;99.90
51867;DHT22;52862;52.504;13.480;2022-09-16T04:59:00;11.70;99.90
51867;DHT22;52862;52.504;13.480;2022-09-16T05:01:29;11.70;99.90
51867;DHT22;52862;52.504;13.480;2022-09-16T05:03:58;11.80;99.90
51867;DHT22;52862;52.504;13.480;2022-09-16T05:06:27;11.80;99.90
51867;DHT22;52862;52.504;13.480;2022-09-16T05:09:05;11.80;99.90
51867;DHT22;52862;52.504;13.480;2022-09-16T05:11:34;11.80;99.90
51867;DHT22;52862;52.504;13.480;2022-09-16T05:14:03;11.80;99.90
51867;DHT22;52862;52.504;13.480;2022-09-16T05:16:31;11.80;99.90
51867;DHT22;52862;52.504;13.480;2022-09-16T05:18:59;12.00;99.90
51867;DHT22;52862;52.504;13.480;2022-09-16T05:21:27;11.60;99.90
51867;DHT22;52862;52.504;13.480;2022-09-16T05:23:54;11.80;99.90
51867;DHT22;52862;52.504;13.480;2022-09-16T05:26:26;11.80;99.90
51867;DHT22;52862;52.504;13.480;2022-09-16T05:28:53;11.80;99.90
51867;DHT22;52862;52.504;13.480;2022-09-16T05:31:21;11.80;99.90
51867;DHT22;52862;52.504;13.480;2022-09-16T05:33:54;11.90;99.90
51867;DHT22;52862;52.504;13.480;2022-09-16T05:36:22;12.00;99.90
51867;DHT22;52862;52.504;13.480;2022-09-16T05:38:52;11.90;99.90
51867;DHT22;52862;52.504;13.480;2022-09-16T05:41:38;11.90;99.90
51867;DHT22;52862;52.504;13.480;2022-09-16T05:44:05;12.00;99.90
51867;DHT22;52862;52.504;13.480;2022-09-16T05:46:32;11.70;99.90
51867;DHT22;52862;52.504;13.480;2022-09-16T05:49:00;12.20;99.90
51867;DHT22;52862;52.504;13.480;2022-09-16T05:51:27;12.10;99.90
51867;DHT22;52862;52.504;13.480;2022-09-16T05:53:54;12.00;99.90
51867;DHT22;52862;52.504;13.480;2022-09-16T05:56:24;12.10;99.90
51867;DHT22;52862;52.504;13.480;2022-09-16T05:58:51;12.20;99.90
51867;DHT22;52862;52.504;13.480;2022-09-16T06:01:23;12.10;99.90
51867;DHT22;52862;52.504;13.480;2022-09-16T06:03:51;12.20;99.90
51867;DHT22;52862;52.504;13.480;2022-09-16T06:06:22;12.20;99.90
51867;DHT22;52862;52.504;13.480;2022-09-16T06:08:49;12.40;99.90
51867;DHT22;52862;52.504;13.480;2022-09-16T06:11:17;12.20;99.90
51867;DHT22;52862;52.504;13.480;2022-09-16T06:13:43;12.20;99.90
51867;DHT22;52862;52.504;13.480;2022-09-16T06:16:10;12.20;99.90
51867;DHT22;52862;52.504;13.480;2022-09-16T06:18:38;12.40;99.90
51867;DHT22;52862;52.504;13.480;2022-09-16T06:21:07;12.40;99.90
51867;DHT22;52862;52.504;13.480;2022-09-16T06:23:38;12.50;99.90
51867;DHT22;52862;52.504;13.480;2022-09-16T06:26:07;12.50;99.90
51867;DHT22;52862;52.504;13.480;2022-09-16T06:28:35;12.50;99.90
51867;DHT22;52862;52.504;13.480;2022-09-16T06:31:04;12.60;99.90
51867;DHT22;52862;52.504;13.480;2022-09-16T06:33:32;12.60;99.90
51867;DHT22;52862;52.504;13.480;2022-09-16T06:36:02;12.50;99.90
51867;DHT22;52862;52.504;13.480;2022-09-16T06:38:29;12.60;99.90
51867;DHT22;52862;52.504;13.480;2022-09-16T06:40:58;12.10;99.90
51867;DHT22;52862;52.504;13.480;2022-09-16T06:43:26;12.40;99.90
51867;DHT22;52862;52.504;13.480;2022-09-16T06:45:56;12.40;99.90
51867;DHT22;52862;52.504;13.480;2022-09-16T06:48:23;12.50;99.90
51867;DHT22;52862;52.504;13.480;2022-09-16T06:50:59;12.50;99.90
51867;DHT22;52862;52.504;13.480;2022-09-16T06:53:27;12.50;99.90
51867;DHT22;52862;52.504;13.480;2022-09-16T06:55:58;12.60;99.90
51867;DHT22;52862;52.504;13.480;2022-09-16T06:58:26;12.50;99.90
51867;DHT22;52862;52.504;13.480;2022-09-16T07:00:54;12.50;99.90
51867;DHT22;52862;52.504;13.480;2022-09-16T07:03:24;12.60;99.90
51867;DHT22;52862;52.504;13.480;2022-09-16T07:05:57;12.50;99.90
51867;DHT22;52862;52.504;13.480;2022-09-16T07:08:25;12.90;99.90
51867;DHT22;52862;52.504;13.480;2022-09-16T07:10:57;13.10;99.90
51867;DHT22;52862;52.504;13.480;2022-09-16T07:13:27;13.00;99.90
51867;DHT22;52862;52.504;13.480;2022-09-16T07:15:58;13.20;99.90
51867;DHT22;52862;52.504;13.480;2022-09-16T07:18:39;13.40;99.90
51867;DHT22;52862;52.504;13.480;2022-09-16T07:21:09;13.40;99.90
51867;DHT22;52862;52.504;13.480;2022-09-16T07:23:37;13.40;99.90
51867;DHT22;52862;52.504;13.480;2022-09-16T07:26:06;13.30;99.90
51867;DHT22;52862;52.504;13.480;2022-09-16T07:28:34;13.20;99.90
51867;DHT22;52862;52.504;13.480;2022-09-16T07:31:06;13.20;99.90
51867;DHT22;52862;52.504;13.480;2022-09-16T07:33:36;13.30;99.90
51867;DHT22;52862;52.504;13.480;2022-09-16T07:36:04;13.20;99.90
51867;DHT22;52862;52.504;13.480;2022-09-16T07:38:32;13.10;99.90
51867;DHT22;52862;52.504;13.480;2022-09-16T07:41:04;13.70;99.90
51867;DHT22;52862;52.504;13.480;2022-09-16T07:43:31;13.60;99.90
51867;DHT22;52862;52.504;13.480;2022-09-16T07:45:59;13.90;99.90
51867;DHT22;52862;52.504;13.480;2022-09-16T07:48:28;13.90;99.90
51867;DHT22;52862;52.504;13.480;2022-09-16T07:51:02;13.70;99.90
51867;DHT22;52862;52.504;13.480;2022-09-16T07:53:29;13.90;99.90
51867;DHT22;52862;52.504;13.480;2022-09-16T07:56:04;14.10;99.90
51867;DHT22;52862;52.504;13.480;2022-09-16T07:58:31;14.30;99.90
51867;DHT22;52862;52.504;13.480;2022-09-16T08:00:59;14.30;99.90
51867;DHT22;52862;52.504;13.480;2022-09-16T08:03:32;14.50;99.90
51867;DHT22;52862;52.504;13.480;2022-09-16T08:06:00;14.70;99.90
51867;DHT22;52862;52.504;13.480;2022-09-16T08:08:27;14.80;99.90
51867;DHT22;52862;52.504;13.480;2022-09-16T08:10:54;14.60;99.90
51867;DHT22;52862;52.504;13.480;2022-09-16T08:13:29;14.50;99.90
51867;DHT22;52862;52.504;13.480;2022-09-16T08:16:03;14.60;99.90
51867;DHT22;52862;52.504;13.480;2022-09-16T08:18:32;14.60;99.90
51867;DHT22;52862;52.504;13.480;2022-09-16T08:21:05;14.70;99.90
51867;DHT22;52862;52.504;13.480;2022-09-16T08:23:33;14.50;99.90
51867;DHT22;52862;52.504;13.480;2022-09-16T08:26:07;14.40;99.90
51867;DHT22;52862;52.504;13.480;2022-09-16T08:28:42;14.60;99.90
51867;DHT22;52862;52.504;13.480;2022-09-16T08:31:30;14.60;99.90
51867;DHT22;52862;52.504;13.480;2022-09-16T08:33:56;14.50;99.90
51867;DHT22;52862;52.504;13.480;2022-09-16T08:36:25;14.50;99.90
51867;DHT22;52862;52.504;13.480;2022-09-16T08:38:54;14.60;99.90
51867;DHT22;52862;52.504;13.480;2022-09-16T08:41:32;14.90;99.90
51867;DHT22;52862;52.504;13.480;2022-09-16T08:44:12;15.10;99.90
51867;DHT22;52862;52.504;13.480;2022-09-16T08:46:46;14.90;99.90
51867;DHT22;52862;52.504;13.480;2022-09-16T08:49:18;15.10;99.90
51867;DHT22;52862;52.504;13.480;2022-09-16T08:51:48;15.20;99.90
51867;DHT22;52862;52.504;13.480;2022-09-16T08:54:24;14.90;99.90
51867;DHT22;52862;52.504;13.480;2022-09-16T08:56:54;15.10;99.90
51867;DHT22;52862;52.504;13.480;2022-09-16T08:59:26;15.00;99.90
51867;DHT22;52862;52.504;13.480;2022-09-16T09:02:06;15.00;99.90
51867;DHT22;52862;52.504;13.480;2022-09-16T09:04:37;15.00;99.90
51867;DHT22;52862;52.504;13.480;2022-09-16T09:07:08;15.30;99.90
51867;DHT22;52862;52.504;13.480;2022-09-16T09:09:53;15.10;99.90
51867;DHT22;52862;52.504;13.480;2022-09-16T09:12:36;15.20;99.90
51867;DHT22;52862;52.504;13.480;2022-09-16T09:15:26;15.80;99.90
51867;DHT22;52862;52.504;13.480;2022-09-16T09:18:06;15.90;99.90
51867;DHT22;52862;52.504;13.480;2022-09-16T09:20:46;15.70;99.90
51867;DHT22;52862;52.504;13.480;2022-09-16T09:23:39;15.80;99.90
51867;DHT22;52862;52.504;13.480;2022-09-16T09:26:14;15.30;99.90
51867;DHT22;52862;52.504;13.480;2022-09-16T09:29:16;15.50;99.90
51867;DHT22;52862;52.504;13.480;2022-09-16T09:31:54;15.40;99.90
51867;DHT22;52862;52.504;13.480;2022-09-16T09:34:40;15.70;99.90
51867;DHT22;52862;52.504;13.480;2022-09-16T09:37:21;15.80;99.90
51867;DHT22;52862;52.504;13.480;2022-09-16T09:39:59;15.90;99.90
51867;DHT22;52862;52.504;13.480;2022-09-16T09:42:33;16.30;99.90
51867;DHT22;52862;52.504;13.480;2022-09-16T09:45:03;16.40;99.90
51867;DHT22;52862;52.504;13.480;2022-09-16T09:47:34;16.30;99.90
51867;DHT22;52862;52.504;13.480;2022-09-16T09:50:13;16.10;99.90
51867;DHT22;52862;52.504;13.480;2022-09-16T09:53:16;16.50;99.90
51867;DHT22;52862;52.504;13.480;2022-09-16T09:56:07;16.60;99.90
51867;DHT22;52862;52.504;13.480;2022-09-16T09:58:42;16.50;99.90
51867;DHT22;52862;52.504;13.480;2022-09-16T10:01:09;16.60;99.90
51867;DHT22;52862;52.504;13.480;2022-09-16T10:03:36;16.70;99.90
51867;DHT22;52862;52.504;13.480;2022-09-16T10:06:06;16.80;99.90
51867;DHT22;52862;52.504;13.480;2022-09-16T10:08:37;17.00;99.90
51867;DHT22;52862;52.504;13.480;2022-09-16T10:11:15;17.00;99.90
51867;DHT22;52862;52.504;13.480;2022-09-16T10:13:47;16.70;99.90
51867;DHT22;52862;52.504;13.480;2022-09-16T10:16:16;16.50;99.90
51867;DHT22;52862;52.504;13.480;2022-09-16T10:18:55;16.20;99.90
51867;DHT22;52862;52.504;13.480;2022-09-16T10:21:37;16.50;99.90
51867;DHT22;52862;52.504;13.480;2022-09-16T10:24:18;16.20;99.90
51867;DHT22;52862;52.504;13.480;2022-09-16T10:26:51;16.20;99.90
51867;DHT22;52862;52.504;13.480;2022-09-16T10:29:18;16.30;99.90
51867;DHT22;52862;52.504;13.480;2022-09-16T10:31:49;16.50;99.90
51867;DHT22;52862;52.504;13.480;2022-09-16T10:34:19;16.60;99.90
51867;DHT22;52862;52.504;13.480;2022-09-16T10:36:59;16.70;99.90
51867;DHT22;52862;52.504;13.480;2022-09-16T10:39:27;16.70;99.90
51867;DHT22;52862;52.504;13.480;2022-09-16T10:41:54;16.80;99.90
51867;DHT22;52862;52.504;13.480;2022-09-16T10:44:24;16.70;99.90
51867;DHT22;52862;52.504;13.480;2022-09-16T10:46:53;17.00;99.90
51867;DHT22;52862;52.504;13.480;2022-09-16T10:49:28;16.70;99.90
51867;DHT22;52862;52.504;13.480;2022-09-16T10:52:08;17.20;99.90
51867;DHT22;52862;52.504;13.480;2022-09-16T10:54:35;17.60;99.90
51867;DHT22;52862;52.504;13.480;2022-09-16T10:57:01;17.40;99.90
51867;DHT22;52862;52.504;13.480;2022-09-16T10:59:28;17.00;99.90
51867;DHT22;52862;52.504;13.480;2022-09-16T11:02:02;16.80;99.90
51867;DHT22;52862;52.504;13.480;2022-09-16T11:04:56;17.60;99.90
51867;DHT22;52862;52.504;13.480;2022-09-16T11:07:35;17.30;99.90
51867;DHT22;52862;52.504;13.480;2022-09-16T11:10:11;17.40;99.90
51867;DHT22;52862;52.504;13.480;2022-09-16T11:12:52;17.40;99.90
51867;DHT22;52862;52.504;13.480;2022-09-16T11:15:31;17.60;99.90
51867;DHT22;52862;52.504;13.480;2022-09-16T11:18:09;17.70;99.90
51867;DHT22;52862;52.504;13.480;2022-09-16T11:21:10;17.80;99.90
51867;DHT22;52862;52.504;13.480;2022-09-16T11:23:50;17.30;99.90
51867;DHT22;52862;52.504;13.480;2022-09-16T11:26:24;17.10;99.90
51867;DHT22;52862;52.504;13.480;2022-09-16T11:29:09;16.80;99.90
51867;DHT22;52862;52.504;13.480;2022-09-16T11:31:46;16.30;99.90
51867;DHT22;52862;52.504;13.480;2022-09-16T11:34:27;16.60;99.90
51867;DHT22;52862;52.504;13.480;2022-09-16T11:37:06;16.70;99.90
51867;DHT22;52862;52.504;13.480;2022-09-16T11:39:57;16.50;99.90
51867;DHT22;52862;52.504;13.480;2022-09-16T11:42:29;16.80;99.90
51867;DHT22;52862;52.504;13.480;2022-09-16T11:45:14;16.80;99.90
51867;DHT22;52862;52.504;13.480;2022-09-16T11:47:55;16.80;99.90
51867;DHT22;52862;52.504;13.480;2022-09-16T11:50:33;16.80;99.90
51867;DHT22;52862;52.504;13.480;2022-09-16T11:53:21;17.10;99.90
51867;DHT22;52862;52.504;13.480;2022-09-16T11:56:00;17.20;99.90
51867;DHT22;52862;52.504;13.480;2022-09-16T11:58:34;17.10;99.90
51867;DHT22;52862;52.504;13.480;2022-09-16T12:01:10;16.80;99.90
51867;DHT22;52862;52.504;13.480;2022-09-16T12:03:43;17.00;99.90
51867;DHT22;52862;52.504;13.480;2022-09-16T12:06:15;16.70;99.90
51867;DHT22;52862;52.504;13.480;2022-09-16T12:08:53;16.60;99.90
51867;DHT22;52862;52.504;13.480;2022-09-16T12:11:25;16.80;99.90
51867;DHT22;52862;52.504;13.480;2022-09-16T12:14:04;16.80;99.90
51867;DHT22;52862;52.504;13.480;2022-09-16T12:16:38;16.60;99.90
51867;DHT22;52862;52.504;13.480;2022-09-16T12:19:13;16.70;99.90
51867;DHT22;52862;52.504;13.480;2022-09-16T12:21:46;17.20;99.90
51867;DHT22;52862;52.504;13.480;2022-09-16T12:24:19;17.40;99.90
51867;DHT22;52862;52.504;13.480;2022-09-16T12:26:51;17.60;99.90
51867;DHT22;52862;52.504;13.480;2022-09-16T12:29:26;18.00;99.90
51867;DHT22;52862;52.504;13.480;2022-09-16T12:31:56;18.30;99.90
51867;DHT22;52862;52.504;13.480;2022-09-16T12:34:28;18.00;99.90
51867;DHT22;52862;52.504;13.480;2022-09-16T12:37:01;18.10;99.90
51867;DHT22;52862;52.504;13.480;2022-09-16T12:39:29;18.30;99.90
51867;DHT22;52862;52.504;13.480;2022-09-16T12:42:28;18.20;99.90
51867;DHT22;52862;52.504;13.480;2022-09-16T12:45:14;17.80;99.90
51867;DHT22;52862;52.504;13.480;2022-09-16T12:48:18;18.20;99.90
51867;DHT22;52862;52.504;13.480;2022-09-16T12:51:07;17.60;99.90
51867;DHT22;52862;52.504;13.480;2022-09-16T12:54:23;17.50;99.90
51867;DHT22;52862;52.504;13.480;2022-09-16T12:57:18;17.80;99.90
51867;DHT22;52862;52.504;13.480;2022-09-16T13:00:24;17.80;99.90
51867;DHT22;52862;52.504;13.480;2022-09-16T13:03:06;18.00;99.90
51867;DHT22;52862;52.504;13.480;2022-09-16T13:05:38;17.90;99.90
51867;DHT22;52862;52.504;13.480;2022-09-16T13:08:21;18.20;99.90
51867;DHT22;52862;52.504;13.480;2022-09-16T13:10:57;18.60;99.90
51867;DHT22;52862;52.504;13.480;2022-09-16T13:13:50;18.80;99.90
51867;DHT22;52862;52.504;13.480;2022-09-16T13:16:29;19.00;99.90
51867;DHT22;52862;52.504;13.480;2022-09-16T13:19:31;18.80;99.90
51867;DHT22;52862;52.504;13.480;2022-09-16T13:22:10;19.00;99.90
51867;DHT22;52862;52.504;13.480;2022-09-16T13:24:41;18.50;99.90
51867;DHT22;52862;52.504;13.480;2022-09-16T13:27:26;19.10;99.90
51867;DHT22;52862;52.504;13.480;2022-09-16T13:30:11;19.40;99.70
51867;DHT22;52862;52.504;13.480;2022-09-16T13:32:42;19.50;99.10
51867;DHT22;52862;52.504;13.480;2022-09-16T13:35:34;19.10;99.00
51867;DHT22;52862;52.504;13.480;2022-09-16T13:38:24;19.40;97.60
51867;DHT22;52862;52.504;13.480;2022-09-16T13:41:08;19.50;97.30
51867;DHT22;52862;52.504;13.480;2022-09-16T13:44:24;20.60;95.90
51867;DHT22;52862;52.504;13.480;2022-09-16T13:47:27;23.60;92.10
51867;DHT22;52862;52.504;13.480;2022-09-16T13:50:00;24.90;87.60
51867;DHT22;52862;52.504;13.480;2022-09-16T13:52:36;22.90;90.80
51867;DHT22;52862;52.504;13.480;2022-09-16T13:55:15;21.80;91.60
51867;DHT22;52862;52.504;13.480;2022-09-16T13:57:55;22.00;91.40
51867;DHT22;52862;52.504;13.480;2022-09-16T14:00:25;22.60;90.50
51867;DHT22;52862;52.504;13.480;2022-09-16T14:03:20;22.30;90.30
51867;DHT22;52862;52.504;13.480;2022-09-16T14:06:20;22.40;90.20
51867;DHT22;52862;52.504;13.480;2022-09-16T14:08:56;20.20;91.30
51867;DHT22;52862;52.504;13.480;2022-09-16T14:11:32;19.30;93.30
51867;DHT22;52862;52.504;13.480;2022-09-16T14:14:03;18.70;94.60
51867;DHT22;52862;52.504;13.480;2022-09-16T14:16:34;18.60;95.00
51867;DHT22;52862;52.504;13.480;2022-09-16T14:19:07;18.60;95.20
51867;DHT22;52862;52.504;13.480;2022-09-16T14:21:39;18.60;95.30
51867;DHT22;52862;52.504;13.480;2022-09-16T14:24:16;18.50;95.50
51867;DHT22;52862;52.504;13.480;2022-09-16T14:26:53;19.00;95.40
51867;DHT22;52862;52.504;13.480;2022-09-16T14:29:21;19.20;92.60
51867;DHT22;52862;52.504;13.480;2022-09-16T14:31:50;19.00;92.30
51867;DHT22;52862;52.504;13.480;2022-09-16T14:34:24;19.10;91.80
51867;DHT22;52862;52.504;13.480;2022-09-16T14:36:53;18.80;92.20
51867;DHT22;52862;52.504;13.480;2022-09-16T14:39:22;18.80;91.90
51867;DHT22;52862;52.504;13.480;2022-09-16T14:41:53;20.30;90.10
51867;DHT22;52862;52.504;13.480;2022-09-16T14:44:25;21.00;89.60
51867;DHT22;52862;52.504;13.480;2022-09-16T14:46:54;20.20;89.10
51867;DHT22;52862;52.504;13.480;2022-09-16T14:49:40;20.50;88.10
51867;DHT22;52862;52.504;13.480;2022-09-16T14:52:17;20.20;87.60
51867;DHT22;52862;52.504;13.480;2022-09-16T14:54:45;19.70;89.70
51867;DHT22;52862;52.504;13.480;2022-09-16T14:57:16;19.20;90.90
51867;DHT22;52862;52.504;13.480;2022-09-16T14:59:45;18.90;91.50
51867;DHT22;52862;52.504;13.480;2022-09-16T15:02:17;18.70;92.20
51867;DHT22;52862;52.504;13.480;2022-09-16T15:04:48;18.60;92.80
51867;DHT22;52862;52.504;13.480;2022-09-16T15:07:20;18.50;93.30
51867;DHT22;52862;52.504;13.480;2022-09-16T15:09:52;18.50;93.80
51867;DHT22;52862;52.504;13.480;2022-09-16T15:12:25;18.40;93.70
51867;DHT22;52862;52.504;13.480;2022-09-16T15:14:53;18.40;93.50
51867;DHT22;52862;52.504;13.480;2022-09-16T15:17:23;18.40;93.60
51867;DHT22;52862;52.504;13.480;2022-09-16T15:19:54;18.40;93.60
51867;DHT22;52862;52.504;13.480;2022-09-16T15:22:23;18.20;93.90
51867;DHT22;52862;52.504;13.480;2022-09-16T15:24:53;18.30;92.80
51867;DHT22;52862;52.504;13.480;2022-09-16T15:27:23;18.30;92.80
51867;DHT22;52862;52.504;13.480;2022-09-16T15:29:56;18.00;92.80
51867;DHT22;52862;52.504;13.480;2022-09-16T15:32:28;17.90;93.40
51867;DHT22;52862;52.504;13.480;2022-09-16T15:35:10;18.00;94.00
51867;DHT22;52862;52.504;13.480;2022-09-16T15:37:37;17.80;93.40
51867;DHT22;52862;52.504;13.480;2022-09-16T15:40:09;17.80;93.70
51867;DHT22;52862;52.504;13.480;2022-09-16T15:42:38;17.80;94.00
51867;DHT22;52862;52.504;13.480;2022-09-16T15:45:13;17.70;93.80
51867;DHT22;52862;52.504;13.480;2022-09-16T15:47:55;17.70;93.90
51867;DHT22;52862;52.504;13.480;2022-09-16T15:50:22;17.70;94.10
51867;DHT22;52862;52.504;13.480;2022-09-16T15:52:55;17.60;93.90
51867;DHT22;52862;52.504;13.480;2022-09-16T15:55:33;17.90;94.30